Time;durP1;ratioP1;P1;durP2;ratioP2;P2;SDS_P1;SDS_P2;PMS_P1;PMS_P2;Temp;Humidity;BMP_temperature;BMP_pressure;BME280_temperature;BME280_humidity;BME280_pressure;Samples;Min_cycle;Max_cycle;Signal;HPM_P1;HPM_P2
2023/11/14 00:04:12;;;;;;;4.65;2.05;;;;;;;;;;6278073;22;20456;-85
2023/11/14 00:06:42;;;;;;;5.03;1.95;;;;;;;;;;6316438;22;20015;-85
2023/11/14 00:09:13;;;;;;;6.32;2.47;;;;;;;;;;6306821;22;20011;-90
2023/11/14 00:11:44;;;;;;;4.72;2.05;;;;;;;;;;6254602;22;20019;-90
2023/11/14 00:14:14;;;;;;;5.03;2.20;;;;;;;;;;6253728;22;20461;-88
2023/11/14 00:16:45;;;;;;;4.90;2.25;;;;;;;;;;6291685;22;20029;-89
2023/11/14 00:19:16;;;;;;;4.95;1.83;;;;;;;;;;6253356;22;20030;-87
2023/11/14 00:21:47;;;;;;;4.18;2.13;;;;;;;;;;6279626;22;20015;-87
2023/11/14 00:24:17;;;;;;;5.22;2.13;;;;;;;;;;6277486;22;20516;-87
2023/11/14 00:26:48;;;;;;;4.35;1.92;;;;;;;;;;6277273;22;20320;-91
2023/11/14 00:29:20;;;;;;;6.10;2.10;;;;;;;;;;6278397;22;20022;-88
2023/11/14 00:31:51;;;;;;;9.10;2.00;;;;;;;;;;6253926;22;20031;-88
2023/11/14 00:34:22;;;;;;;4.75;2.00;;;;;;;;;;6279594;22;20023;-90
2023/11/14 00:36:54;;;;;;;5.75;2.17;;;;;;;;;;6290541;22;20364;-88
2023/11/14 00:39:27;;;;;;;3.65;1.80;;;;;;;;;;6253240;22;20019;-87
2023/11/14 00:41:59;;;;;;;6.07;1.65;;;;;;;;;;6277589;22;20038;-87
2023/11/14 00:44:29;;;;;;;6.65;2.10;;;;;;;;;;6318146;22;20011;-89
2023/11/14 00:51:13;;;;;;;5.90;2.00;;;;;;;;;;6317716;22;20019;-87
2023/11/14 00:53:43;;;;;;;4.85;2.38;;;;;;;;;;6318950;22;20553;-89
2023/11/14 00:56:14;;;;;;;9.02;2.40;;;;;;;;;;6279448;22;20019;-87
2023/11/14 00:58:44;;;;;;;4.45;2.45;;;;;;;;;;6279440;22;20030;-88
2023/11/14 01:01:15;;;;;;;6.43;2.05;;;;;;;;;;6291466;22;20011;-88
2023/11/14 01:03:46;;;;;;;5.38;2.03;;;;;;;;;;6255643;22;20015;-88
2023/11/14 01:59:51;;;;;;;;;;;;;;;;;;6297456;22;20032;-88
2023/11/14 02:02:21;;;;;;;10.05;2.53;;;;;;;;;;6252728;22;19914;-86
2023/11/14 02:04:53;;;;;;;8.73;2.80;;;;;;;;;;6278185;22;20015;-87
2023/11/14 02:07:24;;;;;;;6.45;2.60;;;;;;;;;;6279566;22;20019;-88
2023/11/14 02:10:47;;;;;;;10.63;3.28;;;;;;;;;;6279466;22;20023;-85
2023/11/14 02:13:18;;;;;;;5.65;2.67;;;;;;;;;;6249691;22;20052;-88
2023/11/14 02:23:11;;;;;;;6.45;2.45;;;;;;;;;;6247934;22;20042;-86
2023/11/14 02:29:20;;;;;;;5.82;2.33;;;;;;;;;;6275818;22;20008;-88
2023/11/14 02:31:51;;;;;;;6.20;2.60;;;;;;;;;;6285517;22;20022;-86
2023/11/14 02:34:21;;;;;;;10.13;3.22;;;;;;;;;;6275421;22;20016;-87
2023/11/14 02:36:51;;;;;;;8.18;2.85;;;;;;;;;;6273143;22;20023;-86
2023/11/14 02:40:13;;;;;;;7.45;3.05;;;;;;;;;;6275497;22;20023;-85
2023/11/14 03:00:23;;;;;;;10.65;4.82;;;;;;;;;;6275107;22;20110;-83
2023/11/14 03:15:34;;;;;;;6.03;2.92;;;;;;;;;;6299275;22;20082;-84
2023/11/14 03:18:06;;;;;;;11.23;3.40;;;;;;;;;;6261960;22;20015;-83
2023/11/14 03:20:36;;;;;;;11.80;3.63;;;;;;;;;;6256207;22;20473;-85
2023/11/14 03:23:08;;;;;;;12.95;3.70;;;;;;;;;;6250018;22;20020;-84
2023/11/14 03:25:38;;;;;;;10.98;3.42;;;;;;;;;;6248313;22;20026;-84
2023/11/14 03:28:08;;;;;;;9.15;3.72;;;;;;;;;;6277045;22;20020;-84
2023/11/14 03:30:39;;;;;;;10.65;3.13;;;;;;;;;;6248592;22;20015;-84
2023/11/14 03:33:09;;;;;;;5.95;3.33;;;;;;;;;;6248662;22;20035;-83
2023/11/14 03:35:38;;;;;;;9.60;3.35;;;;;;;;;;6276235;22;20019;-85
2023/11/14 03:38:08;;;;;;;8.45;3.40;;;;;;;;;;6275389;22;20447;-83
2023/11/14 03:40:39;;;;;;;9.02;3.47;;;;;;;;;;6248854;22;20024;-86
2023/11/14 03:43:09;;;;;;;6.93;3.15;;;;;;;;;;6248274;22;20019;-83
2023/11/14 03:45:39;;;;;;;9.23;3.42;;;;;;;;;;6274950;22;20020;-84
2023/11/14 03:48:09;;;;;;;7.93;3.42;;;;;;;;;;6274937;22;20020;-83
2023/11/14 03:50:38;;;;;;;9.50;3.30;;;;;;;;;;6275642;22;20027;-86
2023/11/14 03:53:09;;;;;;;7.72;3.55;;;;;;;;;;6276507;22;20015;-86
2023/11/14 03:55:39;;;;;;;7.63;3.60;;;;;;;;;;6276387;22;20023;-87
2023/11/14 03:58:10;;;;;;;9.15;3.55;;;;;;;;;;6248781;22;20122;-88
2023/11/14 04:00:42;;;;;;;8.68;3.25;;;;;;;;;;6260533;22;20016;-88
2023/11/14 04:03:12;;;;;;;8.98;3.33;;;;;;;;;;6275416;22;20343;-85
2023/11/14 04:05:43;;;;;;;8.18;4.03;;;;;;;;;;6248968;22;20046;-85
2023/11/14 04:08:14;;;;;;;10.55;3.65;;;;;;;;;;6276299;22;20008;-84
2023/11/14 04:10:43;;;;;;;9.27;3.53;;;;;;;;;;6248775;22;20024;-84
2023/11/14 04:13:13;;;;;;;8.48;3.60;;;;;;;;;;6248033;22;20016;-83
2023/11/14 04:15:44;;;;;;;6.82;3.42;;;;;;;;;;6249145;22;20469;-85
2023/11/14 04:18:15;;;;;;;7.82;3.20;;;;;;;;;;6248097;22;20023;-82
2023/11/14 04:20:46;;;;;;;11.70;5.30;;;;;;;;;;6277569;22;20443;-87
2023/11/14 04:23:15;;;;;;;9.82;5.18;;;;;;;;;;6261287;22;20016;-85
2023/11/14 04:25:45;;;;;;;7.50;4.43;;;;;;;;;;6249931;22;20023;-87
2023/11/14 04:28:16;;;;;;;11.15;5.38;;;;;;;;;;6277397;22;20039;-88
2023/11/14 04:30:47;;;;;;;9.25;5.28;;;;;;;;;;6289402;22;20056;-86
2023/11/14 04:33:19;;;;;;;8.45;4.53;;;;;;;;;;6288490;22;20016;-83
2023/11/14 04:35:49;;;;;;;11.13;4.40;;;;;;;;;;6224832;22;20020;-79
2023/11/14 04:38:19;;;;;;;8.48;3.70;;;;;;;;;;6251099;22;20046;-81
2023/11/14 04:40:49;;;;;;;8.30;3.67;;;;;;;;;;6250114;22;20034;-82
2023/11/14 04:43:20;;;;;;;10.10;4.47;;;;;;;;;;6278075;22;20024;-81
2023/11/14 04:45:50;;;;;;;7.90;3.90;;;;;;;;;;6287813;22;20011;-81
2023/11/14 04:48:20;;;;;;;10.77;4.63;;;;;;;;;;6277556;22;20019;-81
2023/11/14 04:50:50;;;;;;;12.00;4.43;;;;;;;;;;6275736;22;20026;-81
2023/11/14 04:53:19;;;;;;;9.07;3.97;;;;;;;;;;6277386;22;20016;-81
2023/11/14 04:55:51;;;;;;;7.30;3.55;;;;;;;;;;6287992;22;20042;-82
2023/11/14 04:58:21;;;;;;;10.38;3.97;;;;;;;;;;6249524;22;20019;-82
2023/11/14 05:00:54;;;;;;;11.52;4.68;;;;;;;;;;6288083;22;20007;-81
2023/11/14 05:03:25;;;;;;;12.68;5.10;;;;;;;;;;6288208;22;20008;-82
2023/11/14 05:05:54;;;;;;;10.52;3.78;;;;;;;;;;6277561;22;20415;-82
2023/11/14 05:08:24;;;;;;;7.88;3.65;;;;;;;;;;6276935;22;20437;-81
2023/11/14 05:10:54;;;;;;;7.00;3.83;;;;;;;;;;6276714;22;20019;-82
2023/11/14 05:13:24;;;;;;;10.57;4.80;;;;;;;;;;6249245;22;20030;-81
2023/11/14 05:15:54;;;;;;;10.02;4.13;;;;;;;;;;6248515;22;20343;-82
2023/11/14 05:18:24;;;;;;;10.05;3.88;;;;;;;;;;6276601;22;20279;-83
2023/11/14 05:20:54;;;;;;;13.05;4.53;;;;;;;;;;6276779;22;20454;-83
2023/11/14 05:23:24;;;;;;;8.05;4.15;;;;;;;;;;6287014;22;20016;-82
2023/11/14 05:25:54;;;;;;;10.02;4.45;;;;;;;;;;6250298;22;20343;-81
2023/11/14 05:28:24;;;;;;;10.48;4.47;;;;;;;;;;6277673;22;20015;-81
2023/11/14 05:30:54;;;;;;;8.63;4.22;;;;;;;;;;6277233;22;20020;-81
2023/11/14 05:33:26;;;;;;;;;;;;;;;;;;6249590;22;20016;-82
2023/11/14 05:35:56;;;;;;;9.63;4.13;;;;;;;;;;6276699;22;19915;-82
2023/11/14 05:38:27;;;;;;;9.70;4.40;;;;;;;;;;6276488;22;20018;-81
2023/11/14 05:40:57;;;;;;;9.43;4.38;;;;;;;;;;6285904;22;20023;-81
2023/11/14 05:43:30;;;;;;;10.43;4.22;;;;;;;;;;6277470;22;20015;-80
2023/11/14 05:46:01;;;;;;;8.80;4.40;;;;;;;;;;6285653;22;20019;-81
2023/11/14 05:48:31;;;;;;;8.52;4.18;;;;;;;;;;6277298;22;20028;-81
2023/11/14 05:51:02;;;;;;;8.00;4.35;;;;;;;;;;6276307;22;20023;-81
2023/11/14 05:53:35;;;;;;;7.65;4.18;;;;;;;;;;6286550;22;20015;-81
2023/11/14 05:56:05;;;;;;;8.32;3.85;;;;;;;;;;6277409;22;20008;-81
2023/11/14 05:58:36;;;;;;;9.25;4.38;;;;;;;;;;6287136;22;20038;-82
2023/11/14 06:01:09;;;;;;;8.88;4.55;;;;;;;;;;6276382;22;20020;-82
2023/11/14 06:03:41;;;;;;;9.18;4.43;;;;;;;;;;6286986;22;20343;-83
2023/11/14 06:06:12;;;;;;;7.20;4.10;;;;;;;;;;6287062;22;20423;-82
2023/11/14 06:08:44;;;;;;;10.48;4.35;;;;;;;;;;6287342;22;20046;-82
2023/11/14 06:11:14;;;;;;;7.53;4.30;;;;;;;;;;6276269;22;20014;-82
2023/11/14 06:13:45;;;;;;;9.38;4.30;;;;;;;;;;6287333;22;20419;-82
2023/11/14 06:16:15;;;;;;;8.98;4.53;;;;;;;;;;6276656;22;20012;-82
2023/11/14 06:18:45;;;;;;;12.88;4.22;;;;;;;;;;6248831;22;20024;-83
2023/11/14 06:21:15;;;;;;;9.98;4.53;;;;;;;;;;6276660;22;20066;-82
2023/11/14 06:23:46;;;;;;;10.07;4.97;;;;;;;;;;6276581;22;20011;-81
2023/11/14 06:26:16;;;;;;;9.50;4.78;;;;;;;;;;6276802;22;20303;-81
2023/11/14 06:28:46;;;;;;;8.43;4.18;;;;;;;;;;6249971;22;20026;-81
2023/11/14 06:31:15;;;;;;;11.60;4.95;;;;;;;;;;6276697;22;20451;-82
2023/11/14 06:33:46;;;;;;;8.15;4.40;;;;;;;;;;6277027;22;20019;-82
2023/11/14 06:36:16;;;;;;;8.02;4.30;;;;;;;;;;6276580;22;20134;-82
2023/11/14 06:38:45;;;;;;;9.43;4.82;;;;;;;;;;6276078;22;20015;-81
2023/11/14 06:41:16;;;;;;;9.80;4.47;;;;;;;;;;6276768;22;20015;-81
2023/11/14 06:43:46;;;;;;;10.38;5.20;;;;;;;;;;6277251;22;20438;-82
2023/11/14 06:46:16;;;;;;;8.88;4.65;;;;;;;;;;6247606;22;20019;-81
2023/11/14 06:48:46;;;;;;;9.63;4.82;;;;;;;;;;6275781;22;20019;-82
2023/11/14 06:51:16;;;;;;;10.68;4.40;;;;;;;;;;6249681;22;20449;-81
2023/11/14 06:53:49;;;;;;;8.43;4.07;;;;;;;;;;6275810;22;20011;-83
2023/11/14 06:56:21;;;;;;;9.25;4.28;;;;;;;;;;6286708;22;20007;-83
2023/11/14 06:58:50;;;;;;;7.90;4.25;;;;;;;;;;6276335;22;20012;-82
2023/11/14 07:01:21;;;;;;;10.20;4.88;;;;;;;;;;6275619;22;20019;-82
2023/11/14 07:03:50;;;;;;;14.77;5.75;;;;;;;;;;6276641;22;20016;-82
2023/11/14 07:06:21;;;;;;;9.52;5.38;;;;;;;;;;6247643;22;20020;-82
2023/11/14 07:08:53;;;;;;;11.73;6.28;;;;;;;;;;6286376;22;20012;-81
2023/11/14 07:11:24;;;;;;;10.88;5.40;;;;;;;;;;6284781;22;20022;-82
2023/11/14 07:13:54;;;;;;;12.02;5.25;;;;;;;;;;6274478;22;20016;-82
2023/11/14 07:16:27;;;;;;;14.52;5.55;;;;;;;;;;6275898;22;20343;-82
2023/11/14 07:18:58;;;;;;;11.02;5.20;;;;;;;;;;6286112;22;20339;-81
2023/11/14 07:21:32;;;;;;;12.75;5.60;;;;;;;;;;6276522;22;20019;-81
2023/11/14 07:24:03;;;;;;;8.70;4.90;;;;;;;;;;6286636;22;20014;-82
2023/11/14 07:26:34;;;;;;;12.98;5.68;;;;;;;;;;6276259;22;20015;-82
2023/11/14 07:29:05;;;;;;;12.25;5.28;;;;;;;;;;6259384;22;20011;-82
2023/11/14 07:31:35;;;;;;;11.15;5.32;;;;;;;;;;6275710;22;20446;-82
2023/11/14 07:34:07;;;;;;;10.73;5.43;;;;;;;;;;6286691;22;20008;-82
2023/11/14 07:36:38;;;;;;;12.55;4.85;;;;;;;;;;6286090;22;20011;-81
2023/11/14 07:39:09;;;;;;;14.13;5.40;;;;;;;;;;6275454;22;20022;-82
2023/11/14 07:41:40;;;;;;;9.18;4.65;;;;;;;;;;6286074;22;20067;-82
2023/11/14 07:44:10;;;;;;;9.50;4.60;;;;;;;;;;6276020;22;20015;-82
2023/11/14 07:46:42;;;;;;;10.30;4.85;;;;;;;;;;6275643;22;20019;-82
2023/11/14 07:49:14;;;;;;;11.68;5.25;;;;;;;;;;6286167;22;20018;-82
2023/11/14 07:51:45;;;;;;;12.50;4.30;;;;;;;;;;6286157;22;20008;-83
2023/11/14 07:54:17;;;;;;;8.02;3.78;;;;;;;;;;6259589;22;20023;-82
2023/11/14 07:56:47;;;;;;;8.15;2.95;;;;;;;;;;6275328;22;20038;-82
2023/11/14 07:59:18;;;;;;;7.72;3.20;;;;;;;;;;6286400;22;20018;-81
2023/11/14 08:01:50;;;;;;;8.07;3.88;;;;;;;;;;6286641;22;20103;-81
2023/11/14 08:04:20;;;;;;;6.25;3.20;;;;;;;;;;6248329;22;20022;-82
2023/11/14 08:06:50;;;;;;;9.52;3.75;;;;;;;;;;6275768;22;20019;-82
2023/11/14 08:09:20;;;;;;;10.93;3.70;;;;;;;;;;6276080;22;20015;-82
2023/11/14 08:11:51;;;;;;;6.93;3.53;;;;;;;;;;6275984;22;20303;-82
2023/11/14 08:14:21;;;;;;;10.65;4.30;;;;;;;;;;6223659;22;20109;-82
2023/11/14 08:16:51;;;;;;;5.70;3.10;;;;;;;;;;6248670;22;20350;-81
2023/11/14 08:19:21;;;;;;;8.18;3.05;;;;;;;;;;6272596;22;20019;-82
2023/11/14 08:21:51;;;;;;;5.10;2.38;;;;;;;;;;6276420;22;20039;-82
2023/11/14 08:24:20;;;;;;;7.57;3.00;;;;;;;;;;6275930;22;20020;-82
2023/11/14 08:26:51;;;;;;;6.22;2.50;;;;;;;;;;6275222;22;20452;-82
2023/11/14 08:29:21;;;;;;;6.50;2.67;;;;;;;;;;6276455;22;20331;-82
2023/11/14 08:31:53;;;;;;;7.32;3.25;;;;;;;;;;6275472;22;20059;-82
2023/11/14 08:34:23;;;;;;;7.47;2.90;;;;;;;;;;6286057;22;20019;-82
2023/11/14 08:36:54;;;;;;;9.18;4.35;;;;;;;;;;6276152;22;20398;-83
2023/11/14 08:39:26;;;;;;;8.18;3.53;;;;;;;;;;6285806;22;20018;-83
2023/11/14 08:41:58;;;;;;;7.75;3.72;;;;;;;;;;6285757;22;20008;-84
2023/11/14 08:44:28;;;;;;;7.25;3.25;;;;;;;;;;6275947;22;20039;-83
2023/11/14 08:46:58;;;;;;;8.55;3.03;;;;;;;;;;6248131;22;20023;-83
2023/11/14 08:49:28;;;;;;;7.75;2.90;;;;;;;;;;6275418;22;20045;-82
2023/11/14 08:51:58;;;;;;;5.63;2.08;;;;;;;;;;6276330;22;20027;-83
2023/11/14 08:54:28;;;;;;;8.40;2.38;;;;;;;;;;6276542;22;20023;-83
2023/11/14 08:56:58;;;;;;;6.10;2.75;;;;;;;;;;6275603;22;20451;-82
2023/11/14 08:59:28;;;;;;;6.38;2.65;;;;;;;;;;6249496;22;20015;-84
2023/11/14 09:01:58;;;;;;;6.60;2.50;;;;;;;;;;6276164;22;20016;-83
2023/11/14 09:04:30;;;;;;;4.65;2.17;;;;;;;;;;6276365;22;20050;-82
2023/11/14 09:07:00;;;;;;;5.00;1.83;;;;;;;;;;6287169;22;20019;-82
2023/11/14 09:09:30;;;;;;;3.50;1.52;;;;;;;;;;6277206;22;20019;-84
2023/11/14 09:12:00;;;;;;;4.57;1.52;;;;;;;;;;6249847;22;20030;-82
2023/11/14 09:14:30;;;;;;;5.05;1.95;;;;;;;;;;6278160;22;20016;-83
2023/11/14 09:17:01;;;;;;;7.93;2.53;;;;;;;;;;6252817;22;20023;-83
2023/11/14 09:19:34;;;;;;;7.93;2.08;;;;;;;;;;6260301;22;20015;-83
2023/11/14 09:22:05;;;;;;;6.03;1.90;;;;;;;;;;6292304;22;20007;-82
2023/11/14 09:24:35;;;;;;;5.65;2.22;;;;;;;;;;6296097;22;20012;-82
2023/11/14 09:27:05;;;;;;;6.28;2.00;;;;;;;;;;6278771;22;20023;-82
2023/11/14 09:29:35;;;;;;;6.28;2.15;;;;;;;;;;6277660;22;20020;-82
2023/11/14 09:32:08;;;;;;;;;;;;;;;;;;6250833;22;20011;-82
2023/11/14 09:34:40;;;;;;;8.00;1.95;;;;;;;;;;6288438;22;19915;-83
2023/11/14 09:37:10;;;;;;;3.78;1.80;;;;;;;;;;6276985;22;20022;-82
2023/11/14 09:39:42;;;;;;;4.05;1.70;;;;;;;;;;6277059;22;20042;-82
2023/11/14 09:42:13;;;;;;;3.55;1.63;;;;;;;;;;6287047;22;20007;-83
2023/11/14 09:44:43;;;;;;;5.07;1.50;;;;;;;;;;6287402;22;20012;-83
2023/11/14 09:47:15;;;;;;;6.32;2.05;;;;;;;;;;6276783;22;20023;-83
2023/11/14 09:49:45;;;;;;;4.15;2.05;;;;;;;;;;6287815;22;20019;-83
2023/11/14 09:52:16;;;;;;;4.68;1.95;;;;;;;;;;6276679;22;20474;-83
2023/11/14 09:54:48;;;;;;;3.38;1.50;;;;;;;;;;6277259;22;20019;-84
2023/11/14 09:57:19;;;;;;;3.25;1.30;;;;;;;;;;6287148;22;20016;-83
2023/11/14 09:59:49;;;;;;;3.53;1.45;;;;;;;;;;6248896;22;20016;-82
2023/11/14 10:02:19;;;;;;;4.45;1.70;;;;;;;;;;6250490;22;20018;-82
2023/11/14 10:04:52;;;;;;;3.92;1.75;;;;;;;;;;6287391;22;20011;-84
2023/11/14 10:07:36;;;;;;;4.85;1.88;;;;;;;;;;6286547;22;20042;-83
2023/11/14 10:10:07;;;;;;;4.50;1.73;;;;;;;;;;6287139;22;20011;-81
2023/11/14 10:12:39;;;;;;;4.32;1.98;;;;;;;;;;6287553;22;20099;-82
2023/11/14 10:15:10;;;;;;;4.75;2.33;;;;;;;;;;6287462;22;20035;-82
2023/11/14 10:17:42;;;;;;;5.25;2.35;;;;;;;;;;6276531;22;20016;-82
2023/11/14 10:20:12;;;;;;;;;;;;;;;;;;6260654;22;20451;-81
2023/11/14 10:22:51;;;;;;;5.25;2.15;;;;;;;;;;6276176;22;20228;-80
2023/11/14 10:25:27;;;;;;;7.10;3.40;;;;;;;;;;6260698;22;20011;-83
2023/11/14 10:28:04;;;;;;;6.68;2.55;;;;;;;;;;6287368;22;20458;-81
2023/11/14 10:30:48;;;;;;;7.60;3.10;;;;;;;;;;6285352;22;20539;-82
2023/11/14 10:33:20;;;;;;;5.60;3.10;;;;;;;;;;6247757;22;20016;-82
2023/11/14 10:36:08;;;;;;;6.35;2.55;;;;;;;;;;6285996;22;20019;-82
2023/11/14 10:38:39;;;;;;;6.78;2.47;;;;;;;;;;6284124;22;20008;-82
2023/11/14 10:41:09;;;;;;;6.18;2.53;;;;;;;;;;6275405;22;20012;-81
2023/11/14 10:43:40;;;;;;;6.63;2.88;;;;;;;;;;6274216;22;20008;-81
2023/11/14 10:46:15;;;;;;;7.85;2.80;;;;;;;;;;6285718;22;20011;-82
2023/11/14 10:48:49;;;;;;;8.32;2.80;;;;;;;;;;6285343;22;20008;-82
2023/11/14 10:51:29;;;;;;;6.10;2.67;;;;;;;;;;6260047;22;20027;-82
2023/11/14 10:54:03;;;;;;;5.53;2.90;;;;;;;;;;6222440;22;20012;-80
2023/11/14 10:56:37;;;;;;;6.57;2.63;;;;;;;;;;6286266;22;20316;-81
2023/11/14 10:59:21;;;;;;;6.03;2.60;;;;;;;;;;6284688;22;20022;-82
2023/11/14 11:01:52;;;;;;;5.65;2.33;;;;;;;;;;6223228;22;20126;-81
2023/11/14 11:04:22;;;;;;;5.38;2.60;;;;;;;;;;6276275;22;20012;-80
2023/11/14 11:06:53;;;;;;;7.07;2.30;;;;;;;;;;6275080;22;20018;-80
2023/11/14 11:09:26;;;;;;;6.68;2.80;;;;;;;;;;6283651;22;20327;-82
2023/11/14 11:11:59;;;;;;;6.43;2.55;;;;;;;;;;6247711;22;20023;-81
2023/11/14 11:14:31;;;;;;;6.32;2.38;;;;;;;;;;6286671;22;20015;-85
2023/11/14 11:17:03;;;;;;;5.25;2.30;;;;;;;;;;6286388;22;20012;-84
2023/11/14 11:19:34;;;;;;;5.53;2.25;;;;;;;;;;6286261;22;20011;-82
2023/11/14 11:22:10;;;;;;;4.15;2.10;;;;;;;;;;6280458;22;20327;-82
2023/11/14 11:25:18;;;;;;;5.85;2.40;;;;;;;;;;6286191;22;20012;-83
2023/11/14 11:27:51;;;;;;;6.47;2.60;;;;;;;;;;6286771;22;20107;-82
2023/11/14 11:30:23;;;;;;;7.10;2.28;;;;;;;;;;6275494;22;20011;-81
2023/11/14 11:32:58;;;;;;;;;;;;;;;;;;6286641;22;20007;-83
2023/11/14 11:35:30;;;;;;;7.43;2.83;;;;;;;;;;6248765;22;19922;-83
2023/11/14 11:38:11;;;;;;;6.53;2.65;;;;;;;;;;6249189;22;20015;-84
2023/11/14 11:41:08;;;;;;;6.38;2.30;;;;;;;;;;6285962;22;20026;-81
2023/11/14 11:43:45;;;;;;;5.63;2.38;;;;;;;;;;6287293;22;20311;-81
2023/11/14 11:46:42;;;;;;;6.97;2.67;;;;;;;;;;6285854;22;20016;-83
2023/11/14 11:49:20;;;;;;;5.45;2.40;;;;;;;;;;6275604;22;20015;-81
2023/11/14 11:52:07;;;;;;;6.10;2.50;;;;;;;;;;6286117;22;20435;-81
2023/11/14 11:54:37;;;;;;;9.98;3.13;;;;;;;;;;6286312;22;20007;-81
2023/11/14 11:57:12;;;;;;;8.48;2.83;;;;;;;;;;6247679;22;20031;-82
2023/11/14 12:10:30;;;;;;;7.53;2.75;;;;;;;;;;6276037;22;20024;-80
2023/11/14 12:13:01;;;;;;;7.15;2.42;;;;;;;;;;6307185;22;20008;-81
2023/11/14 12:16:33;;;;;;;7.03;3.10;;;;;;;;;;6316815;22;20022;-82
2023/11/14 12:19:04;;;;;;;5.55;2.92;;;;;;;;;;6295278;22;20015;-82
2023/11/14 12:21:34;;;;;;;5.30;2.55;;;;;;;;;;6279272;22;20026;-84
2023/11/14 12:24:08;;;;;;;6.07;2.60;;;;;;;;;;6316626;22;20042;-84
2023/11/14 12:26:52;;;;;;;;;;;;;;;;;;;;;
2023/11/14 12:30:12;;;;;;;5.13;2.28;;;;;;;;;;6316343;22;20023;-83
2023/11/14 12:36:22;;;;;;;6.97;2.40;;;;;;;;;;6306128;22;20011;-81
2023/11/14 12:38:54;;;;;;;5.13;2.30;;;;;;;;;;6276930;22;20011;-82
2023/11/14 12:41:29;;;;;;;7.93;2.70;;;;;;;;;;6279290;22;20034;-82
2023/11/14 12:44:00;;;;;;;5.53;2.03;;;;;;;;;;6318108;22;20030;-83
2023/11/14 12:46:39;;;;;;;4.10;1.77;;;;;;;;;;6292751;22;20015;-82
2023/11/14 12:49:10;;;;;;;4.82;1.60;;;;;;;;;;6318224;22;20434;-84
2023/11/14 12:51:41;;;;;;;4.57;2.17;;;;;;;;;;6309234;22;20445;-84
2023/11/14 12:54:14;;;;;;;6.43;2.95;;;;;;;;;;6318065;22;20018;-85
2023/11/14 12:56:45;;;;;;;5.00;2.10;;;;;;;;;;6317577;22;20014;-83
2023/11/14 12:59:17;;;;;;;4.07;2.05;;;;;;;;;;6307438;22;20011;-84
2023/11/14 13:01:48;;;;;;;;;;;;;;;;;;6318983;22;20015;-84
2023/11/14 13:04:20;;;;;;;4.22;1.98;;;;;;;;;;6318934;22;20228;-83
2023/11/14 13:06:50;;;;;;;5.00;1.90;;;;;;;;;;6280965;22;20020;-81
2023/11/14 13:09:21;;;;;;;3.90;1.60;;;;;;;;;;6318095;22;20021;-80
2023/11/14 13:11:52;;;;;;;3.85;1.75;;;;;;;;;;6291890;22;20358;-83
2023/11/14 13:14:21;;;;;;;3.53;1.75;;;;;;;;;;6307763;22;20015;-83
2023/11/14 13:16:51;;;;;;;5.28;1.80;;;;;;;;;;6308500;22;20016;-83
2023/11/14 13:19:22;;;;;;;4.78;1.67;;;;;;;;;;6307653;22;20019;-83
2023/11/14 13:21:54;;;;;;;5.43;2.28;;;;;;;;;;6280413;22;20011;-82
2023/11/14 13:24:24;;;;;;;5.45;1.70;;;;;;;;;;6281674;22;20052;-83
2023/11/14 13:26:54;;;;;;;5.43;2.45;;;;;;;;;;6280934;22;20034;-82
2023/11/14 13:29:24;;;;;;;4.10;1.65;;;;;;;;;;6305933;22;20026;-82
2023/11/14 13:31:54;;;;;;;3.40;1.70;;;;;;;;;;6280158;22;20450;-82
2023/11/14 13:34:25;;;;;;;4.25;1.70;;;;;;;;;;6307686;22;20423;-84
2023/11/14 13:36:58;;;;;;;4.25;1.58;;;;;;;;;;6317728;22;20026;-82
2023/11/14 13:39:28;;;;;;;7.30;2.40;;;;;;;;;;6279793;22;20343;-82
2023/11/14 13:41:58;;;;;;;8.13;4.78;;;;;;;;;;6307235;22;20427;-83
2023/11/14 13:44:29;;;;;;;4.93;2.65;;;;;;;;;;6278622;22;20019;-82
2023/11/14 13:46:59;;;;;;;6.50;2.83;;;;;;;;;;6306908;22;20015;-82
2023/11/14 13:49:30;;;;;;;4.65;2.60;;;;;;;;;;6317867;22;20016;-82
2023/11/14 13:52:01;;;;;;;6.10;2.33;;;;;;;;;;6307116;22;20019;-82
2023/11/14 13:54:32;;;;;;;3.83;1.73;;;;;;;;;;6317053;22;20014;-82
2023/11/14 13:57:04;;;;;;;6.22;1.95;;;;;;;;;;6280220;22;20020;-82
2023/11/14 13:59:37;;;;;;;6.13;2.75;;;;;;;;;;6318032;22;20390;-82
2023/11/14 14:02:08;;;;;;;7.53;3.08;;;;;;;;;;6316301;22;20014;-82
2023/11/14 14:04:39;;;;;;;11.50;6.15;;;;;;;;;;6316519;22;20038;-82
2023/11/14 14:07:09;;;;;;;8.80;3.38;;;;;;;;;;6280345;22;20192;-82
2023/11/14 14:09:39;;;;;;;4.93;2.10;;;;;;;;;;6307292;22;20022;-83
2023/11/14 14:16:02;;;;;;;7.85;3.50;;;;;;;;;;6278035;22;20015;-81
2023/11/14 14:18:33;;;;;;;7.63;3.00;;;;;;;;;;6253464;22;20015;-81
2023/11/14 14:21:04;;;;;;;7.10;2.22;;;;;;;;;;6280214;22;20450;-81
2023/11/14 14:23:37;;;;;;;7.65;3.58;;;;;;;;;;6280261;22;20015;-81
2023/11/14 14:26:09;;;;;;;3.80;1.73;;;;;;;;;;6317348;22;20011;-81
2023/11/14 14:28:39;;;;;;;5.75;2.20;;;;;;;;;;6279833;22;20019;-81
2023/11/14 14:31:11;;;;;;;2.65;1.20;;;;;;;;;;6307305;22;20011;-82
2023/11/14 14:33:41;;;;;;;4.20;1.33;;;;;;;;;;6317336;22;20031;-81
2023/11/14 14:36:11;;;;;;;3.50;1.13;;;;;;;;;;6280162;22;20026;-82
2023/11/14 14:38:45;;;;;;;3.10;1.15;;;;;;;;;;6307055;22;20023;-81
2023/11/14 14:41:20;;;;;;;4.75;1.13;;;;;;;;;;6278997;22;20022;-81
2023/11/14 14:43:53;;;;;;;2.33;0.98;;;;;;;;;;6280797;22;20016;-82
2023/11/14 14:46:29;;;;;;;3.53;1.30;;;;;;;;;;6279134;22;20446;-83
2023/11/14 14:49:13;;;;;;;3.67;1.50;;;;;;;;;;6152487;23;20021;-84
2023/11/14 14:51:46;;;;;;;6.72;3.50;;;;;;;;;;6155123;23;20017;-82
2023/11/14 15:11:32;;;;;;;2.33;1.00;;;;;;;;;;6051982;23;20023;-82
2023/11/14 15:14:05;;;;;;;3.50;1.48;;;;;;;;;;6158605;23;20012;-82
2023/11/14 15:16:35;;;;;;;2.63;1.20;;;;;;;;;;6188981;23;20053;-83
2023/11/14 15:19:05;;;;;;;2.25;1.02;;;;;;;;;;6175781;23;20108;-81
2023/11/14 15:21:36;;;;;;;2.05;1.13;;;;;;;;;;6215007;23;20020;-81
2023/11/14 15:24:09;;;;;;;1.63;0.90;;;;;;;;;;6222940;23;20456;-83
2023/11/14 15:26:42;;;;;;;2.13;1.00;;;;;;;;;;6259811;22;20356;-81
2023/11/14 15:29:13;;;;;;;2.35;0.98;;;;;;;;;;6317880;22;20023;-82
2023/11/14 15:31:43;;;;;;;2.72;0.90;;;;;;;;;;6308310;22;20023;-81
2023/11/14 15:34:13;;;;;;;2.00;0.90;;;;;;;;;;6306519;22;20015;-80
2023/11/14 15:36:43;;;;;;;2.10;1.00;;;;;;;;;;6306413;22;20454;-82
2023/11/14 15:39:13;;;;;;;3.25;0.85;;;;;;;;;;6278382;22;20307;-82
2023/11/14 15:41:44;;;;;;;3.00;1.05;;;;;;;;;;6290799;22;20018;-81
2023/11/14 15:44:14;;;;;;;2.10;0.80;;;;;;;;;;6307046;22;20015;-81
2023/11/14 15:46:46;;;;;;;;;;;;;;;;;;6317819;22;20008;-84
2023/11/14 15:49:16;;;;;;;1.42;0.75;;;;;;;;;;6306802;22;19922;-80
2023/11/14 15:51:46;;;;;;;3.83;0.98;;;;;;;;;;6305291;22;20014;-82
2023/11/14 15:54:17;;;;;;;2.78;1.13;;;;;;;;;;6306736;22;20019;-81
2023/11/14 15:56:47;;;;;;;1.63;0.93;;;;;;;;;;6307299;22;20015;-82
2023/11/14 15:59:17;;;;;;;2.22;0.90;;;;;;;;;;6307392;22;20015;-81
2023/11/14 16:01:47;;;;;;;2.03;0.80;;;;;;;;;;6307014;22;20031;-80
2023/11/14 16:04:18;;;;;;;1.70;0.70;;;;;;;;;;6316891;22;20022;-80
2023/11/14 16:06:49;;;;;;;2.42;0.90;;;;;;;;;;6315174;22;20018;-82
2023/11/14 16:09:19;;;;;;;2.97;1.10;;;;;;;;;;6305915;22;20015;-81
2023/11/14 16:11:49;;;;;;;3.65;1.15;;;;;;;;;;6306533;22;20008;-82
2023/11/14 16:14:19;;;;;;;2.35;1.00;;;;;;;;;;6305585;22;20019;-83
2023/11/14 16:16:49;;;;;;;1.65;0.88;;;;;;;;;;6280920;22;20020;-81
2023/11/14 16:19:19;;;;;;;2.38;0.82;;;;;;;;;;6308196;22;20019;-82
2023/11/14 16:21:51;;;;;;;4.10;0.93;;;;;;;;;;6279335;22;20015;-82
2023/11/14 16:24:21;;;;;;;2.75;0.90;;;;;;;;;;6308374;22;20042;-81
2023/11/14 16:26:51;;;;;;;1.70;0.80;;;;;;;;;;6307986;22;20015;-81
2023/11/14 16:29:20;;;;;;;2.17;0.80;;;;;;;;;;6308067;22;20473;-80
2023/11/14 16:31:51;;;;;;;1.98;0.82;;;;;;;;;;6307590;22;20022;-79
2023/11/14 16:34:21;;;;;;;3.53;0.70;;;;;;;;;;6308116;22;20477;-79
2023/11/14 16:36:51;;;;;;;2.05;0.88;;;;;;;;;;6308663;22;20015;-79
2023/11/14 16:39:21;;;;;;;4.00;1.00;;;;;;;;;;6280876;22;20445;-79
2023/11/14 16:41:51;;;;;;;2.85;0.73;;;;;;;;;;6307850;22;20015;-80
2023/11/14 16:44:21;;;;;;;2.63;1.20;;;;;;;;;;6280587;22;20011;-80
2023/11/14 16:46:54;;;;;;;1.70;1.00;;;;;;;;;;6308111;22;20015;-79
2023/11/14 16:49:24;;;;;;;3.45;1.15;;;;;;;;;;6317964;22;20016;-80
2023/11/14 16:51:54;;;;;;;2.55;0.70;;;;;;;;;;6307110;22;20015;-79
2023/11/14 16:54:24;;;;;;;3.00;0.80;;;;;;;;;;6307402;22;20026;-80
2023/11/14 16:56:55;;;;;;;4.30;1.00;;;;;;;;;;6318339;22;20014;-79
2023/11/14 16:59:25;;;;;;;1.92;0.73;;;;;;;;;;6307881;22;20034;-79
2023/11/14 17:01:57;;;;;;;2.05;0.90;;;;;;;;;;6280004;22;20015;-79
2023/11/14 17:04:28;;;;;;;1.50;0.70;;;;;;;;;;6307303;22;20026;-79
2023/11/14 17:06:58;;;;;;;1.23;0.60;;;;;;;;;;6280025;22;20469;-80
2023/11/14 17:09:28;;;;;;;1.83;0.80;;;;;;;;;;6279608;22;20019;-80
2023/11/14 17:11:59;;;;;;;2.65;0.98;;;;;;;;;;6307462;22;20011;-79
2023/11/14 17:14:29;;;;;;;3.10;1.20;;;;;;;;;;6280884;22;20732;-80
2023/11/14 17:16:59;;;;;;;2.22;0.73;;;;;;;;;;6279300;22;20027;-78
2023/11/14 17:19:30;;;;;;;2.13;0.85;;;;;;;;;;6291343;22;20331;-79
2023/11/14 17:22:00;;;;;;;2.42;0.73;;;;;;;;;;6307204;22;20015;-80
2023/11/14 17:24:30;;;;;;;2.55;1.20;;;;;;;;;;6308145;22;20030;-79
2023/11/14 17:27:01;;;;;;;2.65;0.75;;;;;;;;;;6279229;22;20473;-78
2023/11/14 17:29:31;;;;;;;2.28;0.82;;;;;;;;;;6307051;22;20030;-81